Dades meteomassalio
Diari Summary for Febrer 17, 2018 Units:  Both    English   Metric
« Previous Day
Next Day »
Diari Semanal Mensual Anual Personalitzat
  Maxima: Minima: Mijana:
Temperatura: TemperatureC °F /  -17.8 °C 3.3 °F /  -15.9 °C 9.6 °F /  -12.4 °C
Rosada: DewpointC °F /  -17.8 °C 1.7 °F /  -16.8 °C 5.6 °F /  -14.7 °C
Humitat: Humidity % 58 % 77 %
Velocitat del vent: WindSpeedKMH mph /  0 km/h - 16.8 mph /  27 km/h
Racha vent: WindSpeedGustKMH mph /  0 km/h - -
Vent:- - NW
Pressio: PressurehPa in /  0 hPa 1022.2 in /  34611.7 hPa -
Pluja: 0.5 in /  12.7 mm    
Historical Graphs
 
 
Tabular Data for Febrer 17, 2018
Time Temperature Dew Point Pressure Wind Wind Speed Wind Gust Humidity Rainfall Rate (Hourly) solar Conditions
TemperatureC °F /  -17.8 °C DewpointC °F /  -17.8 °C PressurehPa in /  0 hPa Calm     Humidity % HourlyPrecipMM in /  0 mm SolarRadiationWatts/m^2 W/m2 Conditions
00:01 8.9 °F /  -12.8 °C 7.2 °F /  -13.8 °C 1023.9 in /  34669.3 hPa Calm     89 % 0.0 in /  0 mm 0.0 W/m2 CLR
00:06 8.9 °F /  -12.8 °C 7.2 °F /  -13.8 °C 1023.9 in /  34669.3 hPa Calm     89 % 0.0 in /  0 mm 0.0 W/m2 CLR
00:11 8.9 °F /  -12.8 °C 7.2 °F /  -13.8 °C 1023.9 in /  34669.3 hPa Calm     89 % 0.0 in /  0 mm 0.0 W/m2 CLR
00:16 8.9 °F /  -12.8 °C 7.3 °F /  -13.7 °C 1023.6 in /  34659.1 hPa Calm     90 % 0.3 in /  7.62 mm 0.0 W/m2 RA
00:21 8.9 °F /  -12.8 °C 7.3 °F /  -13.7 °C 1023.6 in /  34659.1 hPa Calm     90 % 0.3 in /  7.62 mm 0.0 W/m2 CLR
00:26 8.9 °F /  -12.8 °C 7.3 °F /  -13.7 °C 1023.6 in /  34659.1 hPa Calm     90 % 0.3 in /  7.62 mm 0.0 W/m2 CLR
00:31 8.9 °F /  -12.8 °C 7.3 °F /  -13.7 °C 1023.6 in /  34659.1 hPa Calm     90 % 0.3 in /  7.62 mm 0.0 W/m2 CLR
00:36 8.9 °F /  -12.8 °C 7.5 °F /  -13.6 °C 1023.6 in /  34659.1 hPa Calm     91 % 0.3 in /  7.62 mm 0.0 W/m2 CLR
00:41 8.9 °F /  -12.8 °C 7.5 °F /  -13.6 °C 1023.6 in /  34659.1 hPa Calm     91 % 0.3 in /  7.62 mm 0.0 W/m2 CLR
00:46 8.9 °F /  -12.8 °C 7.5 °F /  -13.6 °C 1023.6 in /  34659.1 hPa Calm     91 % 0.3 in /  7.62 mm 0.0 W/m2 CLR
00:51 8.9 °F /  -12.8 °C 7.5 °F /  -13.6 °C 1023.6 in /  34659.1 hPa Calm     91 % 0.3 in /  7.62 mm 0.0 W/m2 CLR
00:56 8.3 °F /  -13.2 °C 6.9 °F /  -13.9 °C 1023.6 in /  34659.1 hPa Calm     91 % 0.3 in /  7.62 mm 0.0 W/m2 CLR
01:01 8.3 °F /  -13.2 °C 6.9 °F /  -13.9 °C 1023.6 in /  34659.1 hPa Calm     91 % 0.3 in /  7.62 mm 0.0 W/m2 CLR
01:06 8.3 °F /  -13.2 °C 6.9 °F /  -13.9 °C 1023.6 in /  34659.1 hPa Calm     91 % 0.3 in /  7.62 mm 0.0 W/m2 CLR
01:11 8.3 °F /  -13.2 °C 6.9 °F /  -13.9 °C 1023.6 in /  34659.1 hPa Calm     91 % 0.3 in /  7.62 mm 0.0 W/m2 CLR
01:16 8.3 °F /  -13.2 °C 6.9 °F /  -13.9 °C 1023.6 in /  34659.1 hPa Calm     91 % 0.0 in /  0 mm 0.0 W/m2 CLR
01:21 8.3 °F /  -13.2 °C 6.9 °F /  -13.9 °C 1023.6 in /  34659.1 hPa Calm     91 % 0.0 in /  0 mm 0.0 W/m2 CLR
01:26 8.3 °F /  -13.2 °C 6.9 °F /  -13.9 °C 1023.6 in /  34659.1 hPa Calm     91 % 0.0 in /  0 mm 0.0 W/m2 CLR
01:31 8.3 °F /  -13.2 °C 7.1 °F /  -13.8 °C 1023.6 in /  34659.1 hPa Calm     92 % 0.0 in /  0 mm 0.0 W/m2 CLR
01:36 8.3 °F /  -13.2 °C 7.1 °F /  -13.8 °C 1023.6 in /  34659.1 hPa Calm     92 % 0.0 in /  0 mm 0.0 W/m2 CLR
01:41 8.3 °F /  -13.2 °C 7.1 °F /  -13.8 °C 1023.2 in /  34645.6 hPa Calm     92 % 0.0 in /  0 mm 0.0 W/m2 CLR
01:47 8.9 °F /  -12.8 °C 7.7 °F /  -13.5 °C 1023.2 in /  34645.6 hPa Calm     92 % 0.0 in /  0 mm 0.0 W/m2 CLR
01:52 8.3 °F /  -13.2 °C 7.1 °F /  -13.8 °C 1023.2 in /  34645.6 hPa Calm     92 % 0.0 in /  0 mm 0.0 W/m2 CLR
01:57 8.3 °F /  -13.2 °C 7.1 °F /  -13.8 °C 1023.2 in /  34645.6 hPa Calm     92 % 0.0 in /  0 mm 0.0 W/m2 CLR
02:02 8.3 °F /  -13.2 °C 7.1 °F /  -13.8 °C 1023.2 in /  34645.6 hPa Calm     92 % 0.0 in /  0 mm 0.0 W/m2 CLR
02:07 8.3 °F /  -13.2 °C 7.1 °F /  -13.8 °C 1023.2 in /  34645.6 hPa Calm     92 % 0.0 in /  0 mm 0.0 W/m2 CLR
02:12 8.3 °F /  -13.2 °C 7.1 °F /  -13.8 °C 1023.2 in /  34645.6 hPa Calm     92 % 0.0 in /  0 mm 0.0 W/m2 CLR
02:17 8.3 °F /  -13.2 °C 7.1 °F /  -13.8 °C 1023.2 in /  34645.6 hPa Calm     92 % 0.0 in /  0 mm 0.0 W/m2 CLR
02:22 8.9 °F /  -12.8 °C 7.7 °F /  -13.5 °C 1023.2 in /  34645.6 hPa Calm     92 % 0.0 in /  0 mm 0.0 W/m2 CLR
02:27 8.9 °F /  -12.8 °C 7.7 °F /  -13.5 °C 1022.9 in /  34635.4 hPa Calm     92 % 0.0 in /  0 mm 0.0 W/m2 CLR
02:32 8.9 °F /  -12.8 °C 7.7 °F /  -13.5 °C 1022.9 in /  34635.4 hPa Calm     92 % 0.0 in /  0 mm 0.0 W/m2 CLR
02:37 8.9 °F /  -12.8 °C 7.7 °F /  -13.5 °C 1022.9 in /  34635.4 hPa Calm     92 % 0.0 in /  0 mm 0.0 W/m2 CLR
02:42 8.9 °F /  -12.8 °C 7.7 °F /  -13.5 °C 1022.9 in /  34635.4 hPa Calm     92 % 0.0 in /  0 mm 0.0 W/m2 CLR
02:47 8.9 °F /  -12.8 °C 7.7 °F /  -13.5 °C 1022.9 in /  34635.4 hPa Calm     92 % 0.0 in /  0 mm 0.0 W/m2 CLR
02:52 8.9 °F /  -12.8 °C 7.7 °F /  -13.5 °C 1022.9 in /  34635.4 hPa Calm     92 % 0.0 in /  0 mm 0.0 W/m2 CLR
02:57 8.9 °F /  -12.8 °C 7.7 °F /  -13.5 °C 1022.9 in /  34635.4 hPa Calm     92 % 0.0 in /  0 mm 0.0 W/m2 CLR
03:02 8.9 °F /  -12.8 °C 7.7 °F /  -13.5 °C 1022.9 in /  34635.4 hPa Calm     92 % 0.0 in /  0 mm 0.0 W/m2 CLR
03:07 8.9 °F /  -12.8 °C 7.7 °F /  -13.5 °C 1022.9 in /  34635.4 hPa Calm     92 % 0.0 in /  0 mm 0.0 W/m2 CLR
03:12 8.9 °F /  -12.8 °C 7.7 °F /  -13.5 °C 1022.9 in /  34635.4 hPa Calm     92 % 0.0 in /  0 mm 0.0 W/m2 CLR
03:17 8.9 °F /  -12.8 °C 7.7 °F /  -13.5 °C 1022.9 in /  34635.4 hPa Calm     92 % 0.0 in /  0 mm 0.0 W/m2 CLR
03:22 8.9 °F /  -12.8 °C 7.7 °F /  -13.5 °C 1022.9 in /  34635.4 hPa Calm     92 % 0.0 in /  0 mm 0.0 W/m2 CLR
03:27 8.9 °F /  -12.8 °C 7.7 °F /  -13.5 °C 1022.9 in /  34635.4 hPa Calm     92 % 0.0 in /  0 mm 0.0 W/m2 CLR
03:32 8.3 °F /  -13.2 °C 7.1 °F /  -13.8 °C 1022.6 in /  34625.2 hPa Calm     92 % 0.0 in /  0 mm 0.0 W/m2 CLR
03:37 8.3 °F /  -13.2 °C 7.1 °F /  -13.8 °C 1022.6 in /  34625.2 hPa Calm     92 % 0.0 in /  0 mm 0.0 W/m2 CLR
03:42 8.3 °F /  -13.2 °C 7.1 °F /  -13.8 °C 1022.6 in /  34625.2 hPa Calm     92 % 0.0 in /  0 mm 0.0 W/m2 CLR
03:47 7.8 °F /  -13.4 °C 6.6 °F /  -14.1 °C 1022.6 in /  34625.2 hPa Calm     92 % 0.0 in /  0 mm 0.0 W/m2 CLR
03:52 7.8 °F /  -13.4 °C 6.6 °F /  -14.1 °C 1022.6 in /  34625.2 hPa Calm     92 % 0.0 in /  0 mm 0.0 W/m2 CLR
03:57 7.2 °F /  -13.8 °C 6.0 °F /  -14.4 °C 1022.6 in /  34625.2 hPa Calm     92 % 0.0 in /  0 mm 0.0 W/m2 CLR
04:02 7.2 °F /  -13.8 °C 6.0 °F /  -14.4 °C 1022.6 in /  34625.2 hPa Calm     92 % 0.0 in /  0 mm 0.0 W/m2 CLR
04:07 7.2 °F /  -13.8 °C 6.0 °F /  -14.4 °C 1022.6 in /  34625.2 hPa Calm     92 % 0.0 in /  0 mm 0.0 W/m2 CLR
04:12 6.7 °F /  -14.1 °C 5.4 °F /  -14.8 °C 1022.6 in /  34625.2 hPa Calm     92 % 0.0 in /  0 mm 0.0 W/m2 CLR
04:17 6.7 °F /  -14.1 °C 5.4 °F /  -14.8 °C 1022.6 in /  34625.2 hPa Calm     92 % 0.0 in /  0 mm 0.0 W/m2 CLR
04:22 6.7 °F /  -14.1 °C 5.4 °F /  -14.8 °C 1022.6 in /  34625.2 hPa Calm     92 % 0.0 in /  0 mm 0.0 W/m2 CLR
04:27 6.1 °F /  -14.4 °C 4.9 °F /  -15.1 °C 1022.6 in /  34625.2 hPa Calm     92 % 0.0 in /  0 mm 0.0 W/m2 CLR
04:32 6.1 °F /  -14.4 °C 4.9 °F /  -15.1 °C 1022.6 in /  34625.2 hPa Calm     92 % 0.0 in /  0 mm 0.0 W/m2 CLR
04:37 6.1 °F /  -14.4 °C 4.9 °F /  -15.1 °C 1022.6 in /  34625.2 hPa Calm     92 % 0.0 in /  0 mm 0.0 W/m2 CLR
04:42 5.6 °F /  -14.7 °C 4.3 °F /  -15.4 °C 1022.2 in /  34611.7 hPa Calm     92 % 0.0 in /  0 mm 0.0 W/m2 CLR
04:47 5.6 °F /  -14.7 °C 4.3 °F /  -15.4 °C 1022.2 in /  34611.7 hPa Calm     92 % 0.0 in /  0 mm 0.0 W/m2 CLR
04:52 5.6 °F /  -14.7 °C 4.5 °F /  -15.3 °C 1022.2 in /  34611.7 hPa Calm     93 % 0.0 in /  0 mm 0.0 W/m2 CLR
04:57 5.6 °F /  -14.7 °C 4.5 °F /  -15.3 °C 1022.2 in /  34611.7 hPa Calm     93 % 0.0 in /  0 mm 0.0 W/m2 CLR
05:02 5.6 °F /  -14.7 °C 4.3 °F /  -15.4 °C 1022.2 in /  34611.7 hPa Calm     92 % 0.0 in /  0 mm 0.0 W/m2 CLR
05:07 5.6 °F /  -14.7 °C 4.3 °F /  -15.4 °C 1022.2 in /  34611.7 hPa Calm     92 % 0.0 in /  0 mm 0.0 W/m2 CLR
05:12 5.6 °F /  -14.7 °C 4.3 °F /  -15.4 °C 1022.6 in /  34625.2 hPa Calm     92 % 0.0 in /  0 mm 0.0 W/m2 CLR
05:17 5.6 °F /  -14.7 °C 4.5 °F /  -15.3 °C 1022.6 in /  34625.2 hPa Calm     93 % 0.0 in /  0 mm 0.0 W/m2 CLR
05:22 5.0 °F /  -15 °C 3.9 °F /  -15.6 °C 1022.6 in /  34625.2 hPa Calm     93 % 0.0 in /  0 mm 0.0 W/m2 CLR
05:27 5.0 °F /  -15 °C 3.9 °F /  -15.6 °C 1022.6 in /  34625.2 hPa Calm     93 % 0.0 in /  0 mm 0.0 W/m2 CLR
05:32 5.0 °F /  -15 °C 3.8 °F /  -15.7 °C 1022.6 in /  34625.2 hPa Calm     92 % 0.0 in /  0 mm 0.0 W/m2 CLR
05:37 5.0 °F /  -15 °C 3.9 °F /  -15.6 °C 1022.6 in /  34625.2 hPa Calm     93 % 0.0 in /  0 mm 0.0 W/m2 CLR
05:42 5.0 °F /  -15 °C 3.9 °F /  -15.6 °C 1022.6 in /  34625.2 hPa Calm     93 % 0.0 in /  0 mm 0.0 W/m2 CLR
05:47 5.0 °F /  -15 °C 3.8 °F /  -15.7 °C 1022.6 in /  34625.2 hPa Calm     92 % 0.0 in /  0 mm 0.0 W/m2 CLR
05:52 5.0 °F /  -15 °C 3.9 °F /  -15.6 °C 1022.6 in /  34625.2 hPa Calm     93 % 0.0 in /  0 mm 0.0 W/m2 CLR
05:57 4.4 °F /  -15.3 °C 3.4 °F /  -15.9 °C 1022.6 in /  34625.2 hPa Calm     93 % 0.0 in /  0 mm 0.0 W/m2 CLR
06:02 4.4 °F /  -15.3 °C 3.4 °F /  -15.9 °C 1022.6 in /  34625.2 hPa Calm     93 % 0.0 in /  0 mm 0.0 W/m2 CLR
06:07 4.4 °F /  -15.3 °C 3.4 °F /  -15.9 °C 1022.9 in /  34635.4 hPa Calm     93 % 0.0 in /  0 mm 0.0 W/m2 CLR
06:12 4.4 °F /  -15.3 °C 3.4 °F /  -15.9 °C 1022.6 in /  34625.2 hPa Calm     93 % 0.0 in /  0 mm 0.0 W/m2 CLR
06:17 4.4 °F /  -15.3 °C 3.4 °F /  -15.9 °C 1022.6 in /  34625.2 hPa Calm     93 % 0.0 in /  0 mm 0.0 W/m2 CLR
06:22 4.4 °F /  -15.3 °C 3.4 °F /  -15.9 °C 1022.6 in /  34625.2 hPa Calm     93 % 0.0 in /  0 mm 0.0 W/m2 CLR
06:27 4.4 °F /  -15.3 °C 3.4 °F /  -15.9 °C 1022.9 in /  34635.4 hPa Calm     93 % 0.0 in /  0 mm 0.0 W/m2 CLR
06:32 4.4 °F /  -15.3 °C 3.4 °F /  -15.9 °C 1022.9 in /  34635.4 hPa Calm     93 % 0.3 in /  7.62 mm 0.0 W/m2 RA
06:37 3.9 °F /  -15.6 °C 2.8 °F /  -16.2 °C 1022.6 in /  34625.2 hPa Calm     93 % 0.3 in /  7.62 mm 0.0 W/m2
06:42 3.9 °F /  -15.6 °C 2.8 °F /  -16.2 °C 1022.6 in /  34625.2 hPa Calm     93 % 0.3 in /  7.62 mm 0.0 W/m2 CLR
06:47 3.9 °F /  -15.6 °C 2.8 °F /  -16.2 °C 1022.9 in /  34635.4 hPa Calm     93 % 0.3 in /  7.62 mm 0.0 W/m2 CLR
06:52 3.9 °F /  -15.6 °C 2.8 °F /  -16.2 °C 1022.9 in /  34635.4 hPa Calm     93 % 0.3 in /  7.62 mm 0.0 W/m2 CLR
06:57 3.9 °F /  -15.6 °C 2.8 °F /  -16.2 °C 1022.9 in /  34635.4 hPa Calm     93 % 0.3 in /  7.62 mm 0.0 W/m2 CLR
07:02 3.9 °F /  -15.6 °C 2.8 °F /  -16.2 °C 1022.9 in /  34635.4 hPa Calm     93 % 0.3 in /  7.62 mm 0.0 W/m2 CLR
07:07 3.9 °F /  -15.6 °C 2.8 °F /  -16.2 °C 1022.9 in /  34635.4 hPa Calm     93 % 0.3 in /  7.62 mm 0.0 W/m2 CLR
07:12 3.9 °F /  -15.6 °C 2.8 °F /  -16.2 °C 1022.9 in /  34635.4 hPa Calm     93 % 0.3 in /  7.62 mm 0.0 W/m2 CLR
07:17 3.3 °F /  -15.9 °C 2.3 °F /  -16.5 °C 1022.9 in /  34635.4 hPa Calm     93 % 0.3 in /  7.62 mm 0.0 W/m2 CLR
07:22 3.3 °F /  -15.9 °C 2.3 °F /  -16.5 °C 1022.9 in /  34635.4 hPa Calm     93 % 0.3 in /  7.62 mm 0.0 W/m2 CLR
07:27 3.9 °F /  -15.6 °C 2.8 °F /  -16.2 °C 1022.9 in /  34635.4 hPa Calm     93 % 0.3 in /  7.62 mm 0.0 W/m2 CLR
07:32 3.9 °F /  -15.6 °C 2.8 °F /  -16.2 °C 1022.9 in /  34635.4 hPa Calm     93 % 0.0 in /  0 mm 0.0 W/m2 CLR
07:37 4.4 °F /  -15.3 °C 3.4 °F /  -15.9 °C 1022.9 in /  34635.4 hPa Calm     93 % 0.0 in /  0 mm 0.0 W/m2 CLR
07:42 4.4 °F /  -15.3 °C 3.4 °F /  -15.9 °C 1023.2 in /  34645.6 hPa Calm     93 % 0.0 in /  0 mm 0.0 W/m2 OVC
07:52 5.0 °F /  -15 °C 3.9 °F /  -15.6 °C 1023.2 in /  34645.6 hPa Calm     93 % 0.0 in /  0 mm 0.0 W/m2 OVC
07:57 5.0 °F /  -15 °C 3.9 °F /  -15.6 °C 1023.2 in /  34645.6 hPa Calm     93 % 0.0 in /  0 mm 9.0 W/m2 BKN
08:02 5.6 °F /  -14.7 °C 4.5 °F /  -15.3 °C 1023.2 in /  34645.6 hPa Calm     93 % 0.0 in /  0 mm 14.0 W/m2 BKN
08:07 5.6 °F /  -14.7 °C 4.5 °F /  -15.3 °C 1023.2 in /  34645.6 hPa Calm     93 % 0.0 in /  0 mm 18.0 W/m2 BKN
08:12 5.6 °F /  -14.7 °C 4.5 °F /  -15.3 °C 1023.6 in /  34659.1 hPa Calm     93 % 0.0 in /  0 mm 21.0 W/m2 BKN
08:17 5.6 °F /  -14.7 °C 4.5 °F /  -15.3 °C 1023.6 in /  34659.1 hPa Calm     93 % 0.0 in /  0 mm 32.0 W/m2 BKN
08:22 5.6 °F /  -14.7 °C 4.5 °F /  -15.3 °C 1023.6 in /  34659.1 hPa Calm     93 % 0.0 in /  0 mm 39.0 W/m2 BKN
08:27 5.6 °F /  -14.7 °C 4.5 °F /  -15.3 °C 1023.6 in /  34659.1 hPa Calm     93 % 0.0 in /  0 mm 37.0 W/m2 BKN
08:32 6.1 °F /  -14.4 °C 5.1 °F /  -14.9 °C 1023.6 in /  34659.1 hPa Calm     93 % 0.0 in /  0 mm 30.0 W/m2 BKN
08:37 6.1 °F /  -14.4 °C 5.1 °F /  -14.9 °C 1023.9 in /  34669.3 hPa Calm     93 % 0.0 in /  0 mm 33.0 W/m2 BKN
08:42 6.1 °F /  -14.4 °C 5.1 °F /  -14.9 °C 1023.9 in /  34669.3 hPa Calm     93 % 0.0 in /  0 mm 40.0 W/m2 BKN
08:47 6.1 °F /  -14.4 °C 5.1 °F /  -14.9 °C 1023.9 in /  34669.3 hPa Calm     93 % 0.0 in /  0 mm 47.0 W/m2 SCT
08:52 6.7 °F /  -14.1 °C 5.6 °F /  -14.7 °C 1023.9 in /  34669.3 hPa Calm     93 % 0.0 in /  0 mm 47.0 W/m2 SCT
08:57 6.7 °F /  -14.1 °C 5.6 °F /  -14.7 °C 1023.9 in /  34669.3 hPa Calm     93 % 0.0 in /  0 mm 53.0 W/m2 SCT
09:02 6.7 °F /  -14.1 °C 5.6 °F /  -14.7 °C 1023.9 in /  34669.3 hPa Calm     93 % 0.0 in /  0 mm 60.0 W/m2 SCT
09:07 6.7 °F /  -14.1 °C 5.8 °F /  -14.6 °C 1023.9 in /  34669.3 hPa Calm     94 % 0.0 in /  0 mm 67.0 W/m2 SCT
09:12 7.2 °F /  -13.8 °C 6.2 °F /  -14.3 °C 1023.9 in /  34669.3 hPa Calm     93 % 0.0 in /  0 mm 51.0 W/m2 SCT
09:17 7.2 °F /  -13.8 °C 6.2 °F /  -14.3 °C 1023.9 in /  34669.3 hPa Calm     93 % 0.0 in /  0 mm 40.0 W/m2 SCT
09:22 7.2 °F /  -13.8 °C 6.3 °F /  -14.3 °C 1023.9 in /  34669.3 hPa Calm     94 % 0.0 in /  0 mm 30.0 W/m2 BKN
09:27 7.2 °F /  -13.8 °C 6.3 °F /  -14.3 °C 1023.9 in /  34669.3 hPa Calm     94 % 0.0 in /  0 mm 51.0 W/m2 BKN
09:32 7.8 °F /  -13.4 °C 6.9 °F /  -13.9 °C 1023.9 in /  34669.3 hPa Calm     94 % 0.0 in /  0 mm 86.0 W/m2 SCT
09:37 7.8 °F /  -13.4 °C 6.7 °F /  -14.1 °C 1023.9 in /  34669.3 hPa Calm     93 % 0.0 in /  0 mm 86.0 W/m2 FEW
09:42 7.8 °F /  -13.4 °C 6.7 °F /  -14.1 °C 1023.9 in /  34669.3 hPa Calm     93 % 0.0 in /  0 mm 76.0 W/m2 FEW
09:47 8.3 °F /  -13.2 °C 7.4 °F /  -13.7 °C 1023.9 in /  34669.3 hPa West 3.7 mph /  6 km/h 3.7 mph /  6 km/h 94 % 0.0 in /  0 mm 88.0 W/m2 FEW
09:52 8.3 °F /  -13.2 °C 7.4 °F /  -13.7 °C 1023.9 in /  34669.3 hPa Calm     94 % 0.0 in /  0 mm 93.0 W/m2 CLR
09:57 8.9 °F /  -12.8 °C 8.0 °F /  -13.3 °C 1024.3 in /  34682.8 hPa NW 14.8 mph /  23.8 km/h 14.8 mph /  23.8 km/h 94 % 0.0 in /  0 mm 91.0 W/m2 CLR
10:02 8.9 °F /  -12.8 °C 8.0 °F /  -13.3 °C 1024.3 in /  34682.8 hPa NW 13.0 mph /  20.9 km/h 13.0 mph /  20.9 km/h 94 % 0.0 in /  0 mm 70.0 W/m2 CLR
10:07 10.0 °F /  -12.2 °C 8.8 °F /  -12.9 °C 1024.3 in /  34682.8 hPa WNW 11.3 mph /  18.2 km/h 11.3 mph /  18.2 km/h 92 % 0.0 in /  0 mm 67.0 W/m2 FEW
10:12 10.0 °F /  -12.2 °C 8.6 °F /  -13 °C 1024.3 in /  34682.8 hPa NW 7.4 mph /  11.9 km/h 7.4 mph /  11.9 km/h 91 % 0.0 in /  0 mm 74.0 W/m2 FEW
10:18 10.6 °F /  -11.9 °C 8.8 °F /  -12.9 °C 1024.3 in /  34682.8 hPa NW 9.3 mph /  15 km/h 9.3 mph /  15 km/h 89 % 0.0 in /  0 mm 98.0 W/m2 FEW
10:23 11.1 °F /  -11.6 °C 9.2 °F /  -12.7 °C 1024.3 in /  34682.8 hPa NW 11.1 mph /  17.9 km/h 11.1 mph /  17.9 km/h 88 % 0.0 in /  0 mm 135.0 W/m2 CLR
10:28 11.7 °F /  -11.3 °C 9.7 °F /  -12.4 °C 1024.3 in /  34682.8 hPa NW 13.0 mph /  20.9 km/h 13.0 mph /  20.9 km/h 88 % 0.0 in /  0 mm 169.0 W/m2 CLR
10:33 11.7 °F /  -11.3 °C 9.6 °F /  -12.4 °C 1024.3 in /  34682.8 hPa NNW 16.1 mph /  25.9 km/h 16.1 mph /  25.9 km/h 87 % 0.0 in /  0 mm 162.0 W/m2 CLR
10:38 12.2 °F /  -11 °C 10.1 °F /  -12.2 °C 1024.6 in /  34693 hPa WNW 18.5 mph /  29.8 km/h 18.5 mph /  29.8 km/h 87 % 0.0 in /  0 mm 163.0 W/m2 CLR
10:43 12.2 °F /  -11 °C 9.9 °F /  -12.3 °C 1024.6 in /  34693 hPa NW 22.2 mph /  35.7 km/h 22.2 mph /  35.7 km/h 86 % 0.0 in /  0 mm 197.0 W/m2 CLR
10:48 12.8 °F /  -10.7 °C 10.5 °F /  -11.9 °C 1024.6 in /  34693 hPa NNW 31.5 mph /  50.7 km/h 31.5 mph /  50.7 km/h 86 % 0.0 in /  0 mm 227.0 W/m2 CLR
10:53 12.8 °F /  -10.7 °C 10.3 °F /  -12.1 °C 1024.6 in /  34693 hPa NNW 22.2 mph /  35.7 km/h 22.2 mph /  35.7 km/h 85 % 0.0 in /  0 mm 246.0 W/m2 CLR
10:58 12.8 °F /  -10.7 °C 10.3 °F /  -12.1 °C 1024.6 in /  34693 hPa NW 24.1 mph /  38.8 km/h 24.1 mph /  38.8 km/h 85 % 0.0 in /  0 mm 202.0 W/m2 CLR
11:03 12.8 °F /  -10.7 °C 10.3 °F /  -12.1 °C 1024.6 in /  34693 hPa North 16.1 mph /  25.9 km/h 16.1 mph /  25.9 km/h 85 % 0.0 in /  0 mm 214.0 W/m2 CLR
11:08 12.8 °F /  -10.7 °C 10.2 °F /  -12.1 °C 1024.6 in /  34693 hPa NW 31.5 mph /  50.7 km/h 31.5 mph /  50.7 km/h 84 % 0.0 in /  0 mm 230.0 W/m2 CLR
11:13 13.3 °F /  -10.4 °C 10.7 °F /  -11.8 °C 1024.6 in /  34693 hPa NW 24.1 mph /  38.8 km/h 24.1 mph /  38.8 km/h 84 % 0.0 in /  0 mm 241.0 W/m2 CLR
11:18 13.3 °F /  -10.4 °C 10.5 °F /  -11.9 °C 1024.6 in /  34693 hPa NNW 31.5 mph /  50.7 km/h 31.5 mph /  50.7 km/h 83 % 0.0 in /  0 mm 239.0 W/m2 CLR
11:23 13.3 °F /  -10.4 °C 10.2 °F /  -12.1 °C 1024.6 in /  34693 hPa NNW 31.5 mph /  50.7 km/h 31.5 mph /  50.7 km/h 81 % 0.0 in /  0 mm 359.0 W/m2 CLR
11:28 13.3 °F /  -10.4 °C 10.2 °F /  -12.1 °C 1024.6 in /  34693 hPa NNW 24.1 mph /  38.8 km/h 24.1 mph /  38.8 km/h 81 % 0.0 in /  0 mm 287.0 W/m2 CLR
11:33 13.3 °F /  -10.4 °C 9.9 °F /  -12.3 °C 1024.6 in /  34693 hPa North 24.1 mph /  38.8 km/h 24.1 mph /  38.8 km/h 80 % 0.0 in /  0 mm 216.0 W/m2 CLR
11:38 13.3 °F /  -10.4 °C 9.8 °F /  -12.3 °C 1024.6 in /  34693 hPa NNW 20.4 mph /  32.8 km/h 20.4 mph /  32.8 km/h 79 % 0.0 in /  0 mm 229.0 W/m2 CLR
11:43 13.3 °F /  -10.4 °C 9.6 °F /  -12.4 °C 1024.6 in /  34693 hPa NW 25.9 mph /  41.7 km/h 25.9 mph /  41.7 km/h 78 % 0.0 in /  0 mm 179.0 W/m2 CLR
11:48 13.3 °F /  -10.4 °C 9.4 °F /  -12.6 °C 1024.9 in /  34703.1 hPa NNW 33.3 mph /  53.6 km/h 33.3 mph /  53.6 km/h 77 % 0.0 in /  0 mm 204.0 W/m2 CLR
11:53 13.3 °F /  -10.4 °C 9.2 °F /  -12.7 °C 1024.9 in /  34703.1 hPa NW 33.3 mph /  53.6 km/h 33.3 mph /  53.6 km/h 76 % 0.0 in /  0 mm 214.0 W/m2 CLR
11:58 13.3 °F /  -10.4 °C 9.0 °F /  -12.8 °C 1024.6 in /  34693 hPa North 38.9 mph /  62.6 km/h 38.9 mph /  62.6 km/h 75 % 0.0 in /  0 mm 227.0 W/m2 CLR
12:03 13.3 °F /  -10.4 °C 8.8 °F /  -12.9 °C 1024.9 in /  34703.1 hPa NNW 31.5 mph /  50.7 km/h 31.5 mph /  50.7 km/h 74 % 0.0 in /  0 mm 255.0 W/m2 CLR
12:08 13.3 °F /  -10.4 °C 8.8 °F /  -12.9 °C 1024.9 in /  34703.1 hPa North 31.5 mph /  50.7 km/h 31.5 mph /  50.7 km/h 74 % 0.0 in /  0 mm 262.0 W/m2 CLR
12:13 13.3 °F /  -10.4 °C 8.8 °F /  -12.9 °C 1024.9 in /  34703.1 hPa NNW 27.8 mph /  44.7 km/h 27.8 mph /  44.7 km/h 74 % 0.0 in /  0 mm 258.0 W/m2 CLR
12:18 13.9 °F /  -10.1 °C 9.3 °F /  -12.6 °C 1024.9 in /  34703.1 hPa NNW 31.5 mph /  50.7 km/h 31.5 mph /  50.7 km/h 74 % 0.0 in /  0 mm 301.0 W/m2 CLR
12:23 13.9 °F /  -10.1 °C 9.3 °F /  -12.6 °C 1024.9 in /  34703.1 hPa NW 27.8 mph /  44.7 km/h 27.8 mph /  44.7 km/h 74 % 0.0 in /  0 mm 309.0 W/m2 CLR
12:28 13.9 °F /  -10.1 °C 8.9 °F /  -12.8 °C 1024.9 in /  34703.1 hPa NW 38.9 mph /  62.6 km/h 38.9 mph /  62.6 km/h 72 % 0.0 in /  0 mm 436.0 W/m2 CLR
12:33 14.4 °F /  -9.8 °C 9.1 °F /  -12.7 °C 1024.9 in /  34703.1 hPa NW 42.6 mph /  68.6 km/h 42.6 mph /  68.6 km/h 70 % 0.0 in /  0 mm 304.0 W/m2 CLR
12:38 13.9 °F /  -10.1 °C 8.3 °F /  -13.2 °C 1024.9 in /  34703.1 hPa NNW 42.6 mph /  68.6 km/h 42.6 mph /  68.6 km/h 69 % 0.0 in /  0 mm 308.0 W/m2 CLR
12:43 13.9 °F /  -10.1 °C 8.5 °F /  -13.1 °C 1024.9 in /  34703.1 hPa NW 37.0 mph /  59.5 km/h 37.0 mph /  59.5 km/h 70 % 0.0 in /  0 mm 334.0 W/m2 CLR
12:48 13.9 °F /  -10.1 °C 8.7 °F /  -12.9 °C 1024.9 in /  34703.1 hPa WNW 27.8 mph /  44.7 km/h 27.8 mph /  44.7 km/h 71 % 0.0 in /  0 mm 381.0 W/m2 CLR
12:53 13.9 °F /  -10.1 °C 8.5 °F /  -13.1 °C 1024.9 in /  34703.1 hPa NW 35.2 mph /  56.6 km/h 35.2 mph /  56.6 km/h 70 % 0.0 in /  0 mm 410.0 W/m2 CLR
12:58 13.9 °F /  -10.1 °C 8.1 °F /  -13.3 °C 1024.9 in /  34703.1 hPa NNW 29.6 mph /  47.6 km/h 29.6 mph /  47.6 km/h 68 % 0.0 in /  0 mm 366.0 W/m2 CLR
13:03 13.9 °F /  -10.1 °C 8.3 °F /  -13.2 °C 1024.9 in /  34703.1 hPa NNW 31.5 mph /  50.7 km/h 31.5 mph /  50.7 km/h 69 % 0.0 in /  0 mm 425.0 W/m2 CLR
13:08 14.4 °F /  -9.8 °C 8.4 °F /  -13.1 °C 1024.9 in /  34703.1 hPa NW 35.2 mph /  56.6 km/h 35.2 mph /  56.6 km/h 67 % 0.0 in /  0 mm 343.0 W/m2 CLR
13:13 13.9 °F /  -10.1 °C 7.8 °F /  -13.4 °C 1024.9 in /  34703.1 hPa NNW 35.2 mph /  56.6 km/h 35.2 mph /  56.6 km/h 67 % 0.0 in /  0 mm 355.0 W/m2 CLR
13:18 13.9 °F /  -10.1 °C 8.1 °F /  -13.3 °C 1024.9 in /  34703.1 hPa NNW 29.6 mph /  47.6 km/h 29.6 mph /  47.6 km/h 68 % 0.0 in /  0 mm 367.0 W/m2 CLR
13:23 13.9 °F /  -10.1 °C 7.8 °F /  -13.4 °C 1024.9 in /  34703.1 hPa NNW 38.9 mph /  62.6 km/h 38.9 mph /  62.6 km/h 67 % 0.0 in /  0 mm 364.0 W/m2 CLR
13:28 13.9 °F /  -10.1 °C 7.4 °F /  -13.7 °C 1024.9 in /  34703.1 hPa NW 38.9 mph /  62.6 km/h 38.9 mph /  62.6 km/h 65 % 0.0 in /  0 mm 246.0 W/m2 CLR
13:33 13.9 °F /  -10.1 °C 7.6 °F /  -13.6 °C 1024.9 in /  34703.1 hPa NNW 31.5 mph /  50.7 km/h 31.5 mph /  50.7 km/h 66 % 0.0 in /  0 mm 285.0 W/m2 CLR
13:38 13.9 °F /  -10.1 °C 7.4 °F /  -13.7 °C 1024.6 in /  34693 hPa NW 42.6 mph /  68.6 km/h 42.6 mph /  68.6 km/h 65 % 0.0 in /  0 mm 352.0 W/m2 CLR
13:43 13.9 °F /  -10.1 °C 7.4 °F /  -13.7 °C 1024.6 in /  34693 hPa NNW 40.7 mph /  65.5 km/h 40.7 mph /  65.5 km/h 65 % 0.0 in /  0 mm 330.0 W/m2 CLR
13:48 13.9 °F /  -10.1 °C 7.2 °F /  -13.8 °C 1024.6 in /  34693 hPa NW 37.0 mph /  59.5 km/h 37.0 mph /  59.5 km/h 64 % 0.0 in /  0 mm 257.0 W/m2 CLR
13:53 13.9 °F /  -10.1 °C 7.2 °F /  -13.8 °C 1024.6 in /  34693 hPa NW 37.0 mph /  59.5 km/h 37.0 mph /  59.5 km/h 64 % 0.0 in /  0 mm 276.0 W/m2 CLR
13:58 13.3 °F /  -10.4 °C 6.9 °F /  -13.9 °C 1024.6 in /  34693 hPa NNW 38.9 mph /  62.6 km/h 38.9 mph /  62.6 km/h 65 % 0.0 in /  0 mm 420.0 W/m2 CLR
14:03 14.4 °F /  -9.8 °C 7.7 °F /  -13.5 °C 1024.6 in /  34693 hPa NNW 37.0 mph /  59.5 km/h 37.0 mph /  59.5 km/h 64 % 0.0 in /  0 mm 578.0 W/m2 CLR
14:08 14.4 °F /  -9.8 °C 7.5 °F /  -13.6 °C 1024.6 in /  34693 hPa NNW 31.5 mph /  50.7 km/h 31.5 mph /  50.7 km/h 63 % 0.0 in /  0 mm 411.0 W/m2 CLR
14:13 14.4 °F /  -9.8 °C 7.5 °F /  -13.6 °C 1024.6 in /  34693 hPa NW 32.2 mph /  51.8 km/h 32.2 mph /  51.8 km/h 63 % 0.0 in /  0 mm 390.0 W/m2 CLR
14:18 14.4 °F /  -9.8 °C 7.0 °F /  -13.9 °C 1024.6 in /  34693 hPa NNW 38.9 mph /  62.6 km/h 38.9 mph /  62.6 km/h 61 % 0.0 in /  0 mm 454.0 W/m2 CLR
14:23 14.4 °F /  -9.8 °C 7.0 °F /  -13.9 °C 1024.6 in /  34693 hPa NNW 33.8 mph /  54.4 km/h 33.8 mph /  54.4 km/h 61 % 0.0 in /  0 mm 661.0 W/m2 CLR
14:28 15.0 °F /  -9.4 °C 7.6 °F /  -13.6 °C 1024.6 in /  34693 hPa NW 31.5 mph /  50.7 km/h 31.5 mph /  50.7 km/h 61 % 0.0 in /  0 mm 714.0 W/m2 CLR
14:33 15.0 °F /  -9.4 °C 7.3 °F /  -13.7 °C 1024.3 in /  34682.8 hPa NW 35.2 mph /  56.6 km/h 35.2 mph /  56.6 km/h 60 % 0.0 in /  0 mm 575.0 W/m2 CLR
14:38 15.0 °F /  -9.4 °C 7.3 °F /  -13.7 °C 1024.3 in /  34682.8 hPa NNW 25.9 mph /  41.7 km/h 25.9 mph /  41.7 km/h 60 % 0.0 in /  0 mm 693.0 W/m2 CLR
14:43 15.6 °F /  -9.1 °C 7.6 °F /  -13.6 °C 1024.3 in /  34682.8 hPa NW 42.6 mph /  68.6 km/h 42.6 mph /  68.6 km/h 59 % 0.0 in /  0 mm 591.0 W/m2 CLR
14:48 15.0 °F /  -9.4 °C 7.3 °F /  -13.7 °C 1024.3 in /  34682.8 hPa NW 31.5 mph /  50.7 km/h 31.5 mph /  50.7 km/h 60 % 0.0 in /  0 mm 432.0 W/m2 CLR
14:53 15.0 °F /  -9.4 °C 7.1 °F /  -13.8 °C 1024.3 in /  34682.8 hPa NNW 38.9 mph /  62.6 km/h 38.9 mph /  62.6 km/h 59 % 0.0 in /  0 mm 446.0 W/m2 CLR
14:58 14.4 °F /  -9.8 °C 6.5 °F /  -14.2 °C 1024.3 in /  34682.8 hPa NW 33.3 mph /  53.6 km/h 33.3 mph /  53.6 km/h 59 % 0.0 in /  0 mm 302.0 W/m2 CLR
15:03 14.4 °F /  -9.8 °C 6.5 °F /  -14.2 °C 1024.6 in /  34693 hPa NNW 37.0 mph /  59.5 km/h 37.0 mph /  59.5 km/h 59 % 0.0 in /  0 mm 367.0 W/m2 CLR
15:08 14.4 °F /  -9.8 °C 6.8 °F /  -14 °C 1024.6 in /  34693 hPa North 27.8 mph /  44.7 km/h 27.8 mph /  44.7 km/h 60 % 0.0 in /  0 mm 461.0 W/m2 CLR
15:13 15.0 °F /  -9.4 °C 7.1 °F /  -13.8 °C 1024.3 in /  34682.8 hPa NW 33.3 mph /  53.6 km/h 33.3 mph /  53.6 km/h 59 % 0.0 in /  0 mm 571.0 W/m2 CLR
15:18 15.0 °F /  -9.4 °C 7.1 °F /  -13.8 °C 1024.3 in /  34682.8 hPa NNW 27.8 mph /  44.7 km/h 27.8 mph /  44.7 km/h 59 % 0.0 in /  0 mm 338.0 W/m2 CLR
15:23 15.0 °F /  -9.4 °C 7.1 °F /  -13.8 °C 1024.3 in /  34682.8 hPa NNW 42.6 mph /  68.6 km/h 42.6 mph /  68.6 km/h 59 % 0.0 in /  0 mm 345.0 W/m2 CLR
15:28 14.4 °F /  -9.8 °C 7.0 °F /  -13.9 °C 1024.6 in /  34693 hPa NNW 27.8 mph /  44.7 km/h 27.8 mph /  44.7 km/h 61 % 0.0 in /  0 mm 322.0 W/m2 CLR
15:33 13.9 °F /  -10.1 °C 6.2 °F /  -14.3 °C 1024.3 in /  34682.8 hPa NNW 40.7 mph /  65.5 km/h 40.7 mph /  65.5 km/h 60 % 0.0 in /  0 mm 264.0 W/m2 CLR
15:38 13.9 °F /  -10.1 °C 6.2 °F /  -14.3 °C 1024.3 in /  34682.8 hPa NNW 33.3 mph /  53.6 km/h 33.3 mph /  53.6 km/h 60 % 0.0 in /  0 mm 188.0 W/m2 CLR
15:43 13.9 °F /  -10.1 °C 6.5 °F /  -14.2 °C 1024.3 in /  34682.8 hPa NNW 29.6 mph /  47.6 km/h 29.6 mph /  47.6 km/h 61 % 0.0 in /  0 mm 232.0 W/m2 CLR
15:49 13.9 °F /  -10.1 °C 6.5 °F /  -14.2 °C 1024.6 in /  34693 hPa NNW 35.2 mph /  56.6 km/h 35.2 mph /  56.6 km/h 61 % 0.0 in /  0 mm 216.0 W/m2 CLR
15:54 13.9 °F /  -10.1 °C 6.2 °F /  -14.3 °C 1024.6 in /  34693 hPa NNW 38.9 mph /  62.6 km/h 38.9 mph /  62.6 km/h 60 % 0.0 in /  0 mm 388.0 W/m2 CLR
15:59 13.9 °F /  -10.1 °C 6.2 °F /  -14.3 °C 1024.3 in /  34682.8 hPa NW 35.2 mph /  56.6 km/h 35.2 mph /  56.6 km/h 60 % 0.0 in /  0 mm 378.0 W/m2 CLR
16:04 13.9 °F /  -10.1 °C 6.2 °F /  -14.3 °C 1024.6 in /  34693 hPa NNW 31.5 mph /  50.7 km/h 31.5 mph /  50.7 km/h 60 % 0.0 in /  0 mm 176.0 W/m2 CLR
16:09 13.9 °F /  -10.1 °C 6.5 °F /  -14.2 °C 1024.6 in /  34693 hPa NNW 42.6 mph /  68.6 km/h 42.6 mph /  68.6 km/h 61 % 0.0 in /  0 mm 223.0 W/m2 CLR
16:14 13.3 °F /  -10.4 °C 5.9 °F /  -14.5 °C 1024.6 in /  34693 hPa NNW 40.7 mph /  65.5 km/h 40.7 mph /  65.5 km/h 61 % 0.0 in /  0 mm 211.0 W/m2 CLR
16:19 13.3 °F /  -10.4 °C 6.2 °F /  -14.3 °C 1024.6 in /  34693 hPa NW 31.5 mph /  50.7 km/h 31.5 mph /  50.7 km/h 62 % 0.0 in /  0 mm 225.0 W/m2 CLR
16:24 13.3 °F /  -10.4 °C 6.2 °F /  -14.3 °C 1024.6 in /  34693 hPa NNW 33.3 mph /  53.6 km/h 33.3 mph /  53.6 km/h 62 % 0.0 in /  0 mm 204.0 W/m2 CLR
16:29 13.3 °F /  -10.4 °C 6.2 °F /  -14.3 °C 1024.6 in /  34693 hPa NNW 33.3 mph /  53.6 km/h 33.3 mph /  53.6 km/h 62 % 0.0 in /  0 mm 186.0 W/m2 CLR
16:34 12.8 °F /  -10.7 °C 5.9 °F /  -14.5 °C 1024.6 in /  34693 hPa NW 33.8 mph /  54.4 km/h 33.8 mph /  54.4 km/h 63 % 0.0 in /  0 mm 169.0 W/m2 CLR
16:39 13.3 °F /  -10.4 °C 6.2 °F /  -14.3 °C 1024.6 in /  34693 hPa NNW 37.0 mph /  59.5 km/h 37.0 mph /  59.5 km/h 62 % 0.0 in /  0 mm 209.0 W/m2 CLR
16:44 12.8 °F /  -10.7 °C 5.9 °F /  -14.5 °C 1024.6 in /  34693 hPa NNW 31.5 mph /  50.7 km/h 31.5 mph /  50.7 km/h 63 % 0.0 in /  0 mm 165.0 W/m2 CLR
16:49 12.8 °F /  -10.7 °C 5.9 °F /  -14.5 °C 1024.6 in /  34693 hPa NW 31.5 mph /  50.7 km/h 31.5 mph /  50.7 km/h 63 % 0.0 in /  0 mm 151.0 W/m2 CLR
16:54 12.8 °F /  -10.7 °C 5.9 °F /  -14.5 °C 1024.6 in /  34693 hPa NNW 38.9 mph /  62.6 km/h 38.9 mph /  62.6 km/h 63 % 0.0 in /  0 mm 144.0 W/m2 CLR
16:59 12.8 °F /  -10.7 °C 5.7 °F /  -14.6 °C 1024.6 in /  34693 hPa NW 40.7 mph /  65.5 km/h 40.7 mph /  65.5 km/h 62 % 0.0 in /  0 mm 139.0 W/m2 CLR
17:04 12.8 °F /  -10.7 °C 5.9 °F /  -14.5 °C 1024.6 in /  34693 hPa WNW 31.5 mph /  50.7 km/h 31.5 mph /  50.7 km/h 63 % 0.0 in /  0 mm 132.0 W/m2 CLR
17:09 12.8 °F /  -10.7 °C 5.9 °F /  -14.5 °C 1024.6 in /  34693 hPa NW 40.7 mph /  65.5 km/h 40.7 mph /  65.5 km/h 63 % 0.0 in /  0 mm 135.0 W/m2 CLR
17:14 12.8 °F /  -10.7 °C 5.7 °F /  -14.6 °C 1024.6 in /  34693 hPa NW 42.6 mph /  68.6 km/h 42.6 mph /  68.6 km/h 62 % 0.0 in /  0 mm 134.0 W/m2 CLR
17:19 12.2 °F /  -11 °C 5.4 °F /  -14.8 °C 1024.9 in /  34703.1 hPa NW 37.0 mph /  59.5 km/h 37.0 mph /  59.5 km/h 63 % 0.0 in /  0 mm 113.0 W/m2 CLR
17:24 12.2 °F /  -11 °C 5.4 °F /  -14.8 °C 1024.6 in /  34693 hPa NNW 35.2 mph /  56.6 km/h 35.2 mph /  56.6 km/h 63 % 0.0 in /  0 mm 100.0 W/m2 CLR
17:29 12.2 °F /  -11 °C 5.4 °F /  -14.8 °C 1024.9 in /  34703.1 hPa NNW 32.2 mph /  51.8 km/h 32.2 mph /  51.8 km/h 63 % 0.0 in /  0 mm 79.0 W/m2 CLR
17:34 12.2 °F /  -11 °C 5.6 °F /  -14.7 °C 1024.9 in /  34703.1 hPa NNW 29.6 mph /  47.6 km/h 29.6 mph /  47.6 km/h 64 % 0.0 in /  0 mm 70.0 W/m2 FEW
17:39 12.2 °F /  -11 °C 5.6 °F /  -14.7 °C 1024.9 in /  34703.1 hPa NNW 31.5 mph /  50.7 km/h 31.5 mph /  50.7 km/h 64 % 0.0 in /  0 mm 62.0 W/m2 SCT
17:44 12.2 °F /  -11 °C 5.6 °F /  -14.7 °C 1024.9 in /  34703.1 hPa NW 29.6 mph /  47.6 km/h 29.6 mph /  47.6 km/h 64 % 0.0 in /  0 mm 54.0 W/m2 SCT
17:49 11.7 °F /  -11.3 °C 5.1 °F /  -14.9 °C 1024.9 in /  34703.1 hPa NW 25.9 mph /  41.7 km/h 25.9 mph /  41.7 km/h 64 % 0.0 in /  0 mm 49.0 W/m2 SCT
17:54 11.7 °F /  -11.3 °C 5.1 °F /  -14.9 °C 1024.9 in /  34703.1 hPa NW 33.3 mph /  53.6 km/h 33.3 mph /  53.6 km/h 64 % 0.0 in /  0 mm 44.0 W/m2 BKN
17:59 11.7 °F /  -11.3 °C 5.1 °F /  -14.9 °C 1025.3 in /  34716.7 hPa NW 35.2 mph /  56.6 km/h 35.2 mph /  56.6 km/h 64 % 0.0 in /  0 mm 39.0 W/m2 BKN
18:04 11.7 °F /  -11.3 °C 5.1 °F /  -14.9 °C 1025.3 in /  34716.7 hPa NW 27.8 mph /  44.7 km/h 27.8 mph /  44.7 km/h 64 % 0.0 in /  0 mm 33.0 W/m2 BKN
18:09 11.7 °F /  -11.3 °C 5.1 °F /  -14.9 °C 1025.3 in /  34716.7 hPa NW 29.6 mph /  47.6 km/h 29.6 mph /  47.6 km/h 64 % 0.0 in /  0 mm 30.0 W/m2 BKN
18:14 11.7 °F /  -11.3 °C 5.1 °F /  -14.9 °C 1025.3 in /  34716.7 hPa NW 33.3 mph /  53.6 km/h 33.3 mph /  53.6 km/h 64 % 0.0 in /  0 mm 25.0 W/m2 BKN
18:19 11.7 °F /  -11.3 °C 5.1 °F /  -14.9 °C 1025.3 in /  34716.7 hPa North 29.6 mph /  47.6 km/h 29.6 mph /  47.6 km/h 64 % 0.0 in /  0 mm 19.0 W/m2 BKN
18:24 11.1 °F /  -11.6 °C 4.8 °F /  -15.1 °C 1025.3 in /  34716.7 hPa NW 25.9 mph /  41.7 km/h 25.9 mph /  41.7 km/h 65 % 0.0 in /  0 mm 12.0 W/m2 BKN
18:29 11.1 °F /  -11.6 °C 4.8 °F /  -15.1 °C 1025.3 in /  34716.7 hPa NW 9.3 mph /  15 km/h 9.3 mph /  15 km/h 65 % 0.0 in /  0 mm 9.0 W/m2 BKN
18:34 11.1 °F /  -11.6 °C 4.8 °F /  -15.1 °C 1025.6 in /  34726.8 hPa NW 31.5 mph /  50.7 km/h 31.5 mph /  50.7 km/h 65 % 0.0 in /  0 mm 5.0 W/m2 OVC
18:39 11.1 °F /  -11.6 °C 4.8 °F /  -15.1 °C 1025.3 in /  34716.7 hPa NW 19.3 mph /  31.1 km/h 19.3 mph /  31.1 km/h 65 % 0.0 in /  0 mm 0.0 W/m2 OVC
18:44 11.1 °F /  -11.6 °C 4.8 °F /  -15.1 °C 1025.3 in /  34716.7 hPa NW 24.1 mph /  38.8 km/h 24.1 mph /  38.8 km/h 65 % 0.0 in /  0 mm 0.0 W/m2 OVC
18:49 11.1 °F /  -11.6 °C 4.6 °F /  -15.2 °C 1025.3 in /  34716.7 hPa NW 35.4 mph /  57 km/h 35.4 mph /  57 km/h 64 % 0.0 in /  0 mm 0.0 W/m2 CLR
18:54 11.1 °F /  -11.6 °C 4.3 °F /  -15.4 °C 1025.6 in /  34726.8 hPa NW 31.5 mph /  50.7 km/h 31.5 mph /  50.7 km/h 63 % 0.0 in /  0 mm 0.0 W/m2 CLR
18:59 11.1 °F /  -11.6 °C 4.3 °F /  -15.4 °C 1025.3 in /  34716.7 hPa NW 18.5 mph /  29.8 km/h 18.5 mph /  29.8 km/h 63 % 0.0 in /  0 mm 0.0 W/m2 CLR
19:04 11.1 °F /  -11.6 °C 4.1 °F /  -15.5 °C 1025.6 in /  34726.8 hPa NW 22.2 mph /  35.7 km/h 22.2 mph /  35.7 km/h 62 % 0.0 in /  0 mm 0.0 W/m2 CLR
19:09 11.1 °F /  -11.6 °C 3.9 °F /  -15.6 °C 1025.6 in /  34726.8 hPa NNW 24.1 mph /  38.8 km/h 24.1 mph /  38.8 km/h 61 % 0.0 in /  0 mm 0.0 W/m2 CLR
19:14 10.6 °F /  -11.9 °C 3.3 °F /  -15.9 °C 1025.6 in /  34726.8 hPa WNW 20.4 mph /  32.8 km/h 20.4 mph /  32.8 km/h 61 % 0.0 in /  0 mm 0.0 W/m2 CLR
19:19 10.6 °F /  -11.9 °C 3.1 °F /  -16.1 °C 1025.6 in /  34726.8 hPa NW 31.5 mph /  50.7 km/h 31.5 mph /  50.7 km/h 60 % 0.0 in /  0 mm 0.0 W/m2 CLR
19:24 10.6 °F /  -11.9 °C 2.9 °F /  -16.2 °C 1025.6 in /  34726.8 hPa NW 31.5 mph /  50.7 km/h 31.5 mph /  50.7 km/h 59 % 0.0 in /  0 mm 0.0 W/m2 CLR
19:29 10.6 °F /  -11.9 °C 2.9 °F /  -16.2 °C 1025.6 in /  34726.8 hPa NW 31.5 mph /  50.7 km/h 31.5 mph /  50.7 km/h 59 % 0.0 in /  0 mm 0.0 W/m2 CLR
19:34 10.6 °F /  -11.9 °C 2.6 °F /  -16.3 °C 1025.6 in /  34726.8 hPa NW 31.5 mph /  50.7 km/h 31.5 mph /  50.7 km/h 58 % 0.0 in /  0 mm 0.0 W/m2 CLR
19:39 10.6 °F /  -11.9 °C 2.6 °F /  -16.3 °C 1025.6 in /  34726.8 hPa NW 27.8 mph /  44.7 km/h 27.8 mph /  44.7 km/h 58 % 0.0 in /  0 mm 0.0 W/m2 CLR
19:44 10.6 °F /  -11.9 °C 2.6 °F /  -16.3 °C 1025.6 in /  34726.8 hPa WNW 25.9 mph /  41.7 km/h 25.9 mph /  41.7 km/h 58 % 0.0 in /  0 mm 0.0 W/m2 CLR
19:49 10.6 °F /  -11.9 °C 2.6 °F /  -16.3 °C 1025.6 in /  34726.8 hPa NW 31.5 mph /  50.7 km/h 31.5 mph /  50.7 km/h 58 % 0.0 in /  0 mm 0.0 W/m2 CLR
19:54 10.6 °F /  -11.9 °C 2.6 °F /  -16.3 °C 1025.6 in /  34726.8 hPa NW 24.1 mph /  38.8 km/h 24.1 mph /  38.8 km/h 58 % 0.0 in /  0 mm 0.0 W/m2 CLR
19:59 10.6 °F /  -11.9 °C 2.6 °F /  -16.3 °C 1026.0 in /  34740.4 hPa NW 20.4 mph /  32.8 km/h 20.4 mph /  32.8 km/h 58 % 0.0 in /  0 mm 0.0 W/m2 CLR
20:04 10.6 °F /  -11.9 °C 2.9 °F /  -16.2 °C 1026.0 in /  34740.4 hPa NNW 24.1 mph /  38.8 km/h 24.1 mph /  38.8 km/h 59 % 0.0 in /  0 mm 0.0 W/m2 CLR
20:09 10.6 °F /  -11.9 °C 3.1 °F /  -16.1 °C 1025.6 in /  34726.8 hPa NW 37.0 mph /  59.5 km/h 37.0 mph /  59.5 km/h 60 % 0.0 in /  0 mm 0.0 W/m2 CLR
20:14 10.6 °F /  -11.9 °C 3.1 °F /  -16.1 °C 1026.0 in /  34740.4 hPa NNW 33.3 mph /  53.6 km/h 33.3 mph /  53.6 km/h 60 % 0.0 in /  0 mm 0.0 W/m2 CLR
20:19 10.6 °F /  -11.9 °C 3.3 °F /  -15.9 °C 1026.0 in /  34740.4 hPa NW 25.9 mph /  41.7 km/h 25.9 mph /  41.7 km/h 61 % 0.0 in /  0 mm 0.0 W/m2 CLR
20:24 10.0 °F /  -12.2 °C 2.8 °F /  -16.2 °C 1026.0 in /  34740.4 hPa NNW 33.3 mph /  53.6 km/h 33.3 mph /  53.6 km/h 61 % 0.0 in /  0 mm 0.0 W/m2 CLR
20:29 10.0 °F /  -12.2 °C 2.8 °F /  -16.2 °C 1026.0 in /  34740.4 hPa WNW 31.5 mph /  50.7 km/h 31.5 mph /  50.7 km/h 61 % 0.0 in /  0 mm 0.0 W/m2 CLR
20:34 10.0 °F /  -12.2 °C 2.8 °F /  -16.2 °C 1026.0 in /  34740.4 hPa NW 29.6 mph /  47.6 km/h 29.6 mph /  47.6 km/h 61 % 0.0 in /  0 mm 0.0 W/m2 CLR
20:39 10.0 °F /  -12.2 °C 2.8 °F /  -16.2 °C 1026.0 in /  34740.4 hPa NW 31.5 mph /  50.7 km/h 31.5 mph /  50.7 km/h 61 % 0.0 in /  0 mm 0.0 W/m2 CLR
20:44 10.0 °F /  -12.2 °C 3.1 °F /  -16.1 °C 1026.0 in /  34740.4 hPa NW 27.8 mph /  44.7 km/h 27.8 mph /  44.7 km/h 62 % 0.0 in /  0 mm 0.0 W/m2 CLR
20:49 10.0 °F /  -12.2 °C 3.1 °F /  -16.1 °C 1026.0 in /  34740.4 hPa NNW 31.5 mph /  50.7 km/h 31.5 mph /  50.7 km/h 62 % 0.0 in /  0 mm 0.0 W/m2 CLR
20:54 9.4 °F /  -12.6 °C 2.5 °F /  -16.4 °C 1026.3 in /  34750.5 hPa NW 31.5 mph /  50.7 km/h 31.5 mph /  50.7 km/h 62 % 0.0 in /  0 mm 0.0 W/m2 CLR
20:59 9.4 °F /  -12.6 °C 2.5 °F /  -16.4 °C 1026.3 in /  34750.5 hPa NNW 27.4 mph /  44.1 km/h 27.4 mph /  44.1 km/h 62 % 0.0 in /  0 mm 0.0 W/m2 CLR
21:05 9.4 °F /  -12.6 °C 2.3 °F /  -16.5 °C 1026.6 in /  34760.7 hPa NW 31.5 mph /  50.7 km/h 31.5 mph /  50.7 km/h 61 % 0.0 in /  0 mm 0.0 W/m2 CLR
21:10 9.4 °F /  -12.6 °C 2.3 °F /  -16.5 °C 1026.6 in /  34760.7 hPa NNW 27.8 mph /  44.7 km/h 27.8 mph /  44.7 km/h 61 % 0.0 in /  0 mm 0.0 W/m2 CLR
21:14 9.4 °F /  -12.6 °C 2.3 °F /  -16.5 °C 1026.6 in /  34760.7 hPa NW 31.5 mph /  50.7 km/h 31.5 mph /  50.7 km/h 61 % 0.0 in /  0 mm 0.0 W/m2 CLR
21:20 9.4 °F /  -12.6 °C 2.1 °F /  -16.6 °C 1026.6 in /  34760.7 hPa NW 25.9 mph /  41.7 km/h 25.9 mph /  41.7 km/h 60 % 0.0 in /  0 mm 0.0 W/m2 CLR
21:25 9.4 °F /  -12.6 °C 2.1 °F /  -16.6 °C 1026.6 in /  34760.7 hPa NW 22.2 mph /  35.7 km/h 22.2 mph /  35.7 km/h 60 % 0.0 in /  0 mm 0.0 W/m2 CLR
21:30 8.9 °F /  -12.8 °C 1.8 °F /  -16.8 °C 1026.6 in /  34760.7 hPa NW 24.1 mph /  38.8 km/h 24.1 mph /  38.8 km/h 61 % 0.0 in /  0 mm 0.0 W/m2 CLR
21:35 8.9 °F /  -12.8 °C 1.8 °F /  -16.8 °C 1026.6 in /  34760.7 hPa NW 18.5 mph /  29.8 km/h 18.5 mph /  29.8 km/h 61 % 0.0 in /  0 mm 0.0 W/m2 CLR
21:40 8.9 °F /  -12.8 °C 2.0 °F /  -16.7 °C 1027.0 in /  34774.2 hPa NNW 27.8 mph /  44.7 km/h 27.8 mph /  44.7 km/h 62 % 0.0 in /  0 mm 0.0 W/m2 CLR
21:45 8.9 °F /  -12.8 °C 2.0 °F /  -16.7 °C 1027.0 in /  34774.2 hPa NW 17.7 mph /  28.5 km/h 17.7 mph /  28.5 km/h 62 % 0.0 in /  0 mm 0.0 W/m2 CLR
21:50 8.9 °F /  -12.8 °C 2.0 °F /  -16.7 °C 1027.0 in /  34774.2 hPa NW 27.8 mph /  44.7 km/h 27.8 mph /  44.7 km/h 62 % 0.0 in /  0 mm 0.0 W/m2 CLR
21:55 8.9 °F /  -12.8 °C 2.0 °F /  -16.7 °C 1027.0 in /  34774.2 hPa NW 24.1 mph /  38.8 km/h 24.1 mph /  38.8 km/h 62 % 0.0 in /  0 mm 0.0 W/m2 CLR
22:00 8.9 °F /  -12.8 °C 2.2 °F /  -16.6 °C 1027.0 in /  34774.2 hPa NW 22.2 mph /  35.7 km/h 22.2 mph /  35.7 km/h 63 % 0.0 in /  0 mm 0.0 W/m2 CLR
22:05 8.3 °F /  -13.2 °C 1.7 °F /  -16.8 °C 1027.0 in /  34774.2 hPa NW 20.4 mph /  32.8 km/h 20.4 mph /  32.8 km/h 63 % 0.0 in /  0 mm 0.0 W/m2 CLR
22:10 8.3 °F /  -13.2 °C 1.7 °F /  -16.8 °C 1027.0 in /  34774.2 hPa NNW 25.9 mph /  41.7 km/h 25.9 mph /  41.7 km/h 63 % 0.0 in /  0 mm 0.0 W/m2 CLR
22:15 8.3 °F /  -13.2 °C 1.9 °F /  -16.7 °C 1027.3 in /  34784.4 hPa NNW 22.5 mph /  36.2 km/h 22.5 mph /  36.2 km/h 64 % 0.0 in /  0 mm 0.0 W/m2 CLR
22:20 8.3 °F /  -13.2 °C 1.9 °F /  -16.7 °C 1027.3 in /  34784.4 hPa NW 24.1 mph /  38.8 km/h 24.1 mph /  38.8 km/h 64 % 0.0 in /  0 mm 0.0 W/m2 CLR
22:25 8.3 °F /  -13.2 °C 1.9 °F /  -16.7 °C 1027.0 in /  34774.2 hPa NW 25.9 mph /  41.7 km/h 25.9 mph /  41.7 km/h 64 % 0.0 in /  0 mm 0.0 W/m2 CLR
22:30 8.3 °F /  -13.2 °C 2.1 °F /  -16.6 °C 1027.3 in /  34784.4 hPa NW 19.3 mph /  31.1 km/h 19.3 mph /  31.1 km/h 65 % 0.0 in /  0 mm 0.0 W/m2 CLR
22:35 8.3 °F /  -13.2 °C 2.1 °F /  -16.6 °C 1027.3 in /  34784.4 hPa NW 18.5 mph /  29.8 km/h 18.5 mph /  29.8 km/h 65 % 0.0 in /  0 mm 0.0 W/m2 CLR
22:40 8.3 °F /  -13.2 °C 2.1 °F /  -16.6 °C 1027.3 in /  34784.4 hPa NW 25.9 mph /  41.7 km/h 25.9 mph /  41.7 km/h 65 % 0.0 in /  0 mm 0.0 W/m2 CLR
22:45 8.3 °F /  -13.2 °C 2.1 °F /  -16.6 °C 1027.3 in /  34784.4 hPa NW 20.9 mph /  33.6 km/h 20.9 mph /  33.6 km/h 65 % 0.0 in /  0 mm 0.0 W/m2 CLR
22:50 8.3 °F /  -13.2 °C 2.1 °F /  -16.6 °C 1027.3 in /  34784.4 hPa NW 20.4 mph /  32.8 km/h 20.4 mph /  32.8 km/h 65 % 0.0 in /  0 mm 0.0 W/m2 CLR
22:55 7.8 °F /  -13.4 °C 1.8 °F /  -16.8 °C 1027.3 in /  34784.4 hPa NW 20.4 mph /  32.8 km/h 20.4 mph /  32.8 km/h 66 % 0.0 in /  0 mm 0.0 W/m2 CLR
23:00 7.8 °F /  -13.4 °C 1.8 °F /  -16.8 °C 1027.3 in /  34784.4 hPa WNW 18.5 mph /  29.8 km/h 18.5 mph /  29.8 km/h 66 % 0.0 in /  0 mm 0.0 W/m2 CLR
23:05 7.8 °F /  -13.4 °C 1.8 °F /  -16.8 °C 1027.3 in /  34784.4 hPa WNW 18.5 mph /  29.8 km/h 18.5 mph /  29.8 km/h 66 % 0.0 in /  0 mm 0.0 W/m2 CLR
23:10 7.8 °F /  -13.4 °C 1.8 °F /  -16.8 °C 1027.7 in /  34797.9 hPa WNW 18.5 mph /  29.8 km/h 18.5 mph /  29.8 km/h 66 % 0.0 in /  0 mm 0.0 W/m2 CLR
23:15 7.8 °F /  -13.4 °C 2.1 °F /  -16.6 °C 1027.7 in /  34797.9 hPa WNW 16.7 mph /  26.9 km/h 16.7 mph /  26.9 km/h 67 % 0.0 in /  0 mm 0.0 W/m2 CLR
23:20 7.8 °F /  -13.4 °C 2.1 °F /  -16.6 °C 1027.7 in /  34797.9 hPa WNW 20.9 mph /  33.6 km/h 20.9 mph /  33.6 km/h 67 % 0.0 in /  0 mm 0.0 W/m2 CLR
23:25 7.2 °F /  -13.8 °C 1.7 °F /  -16.8 °C 1027.3 in /  34784.4 hPa WNW 29.6 mph /  47.6 km/h 29.6 mph /  47.6 km/h 68 % 0.0 in /  0 mm 0.0 W/m2 CLR
23:30 7.2 °F /  -13.8 °C 1.7 °F /  -16.8 °C 1027.3 in /  34784.4 hPa NW 14.8 mph /  23.8 km/h 14.8 mph /  23.8 km/h 68 % 0.0 in /  0 mm 0.0 W/m2 CLR
23:35 7.2 °F /  -13.8 °C 1.9 °F /  -16.7 °C 1027.3 in /  34784.4 hPa WNW 22.5 mph /  36.2 km/h 22.5 mph /  36.2 km/h 69 % 0.0 in /  0 mm 0.0 W/m2 CLR
23:40 7.2 °F /  -13.8 °C 1.9 °F /  -16.7 °C 1027.3 in /  34784.4 hPa NW 16.7 mph /  26.9 km/h 16.7 mph /  26.9 km/h 69 % 0.0 in /  0 mm 0.0 W/m2 CLR
23:45 7.2 °F /  -13.8 °C 2.1 °F /  -16.6 °C 1027.3 in /  34784.4 hPa NW 18.5 mph /  29.8 km/h 18.5 mph /  29.8 km/h 70 % 0.0 in /  0 mm 0.0 W/m2 CLR
23:50 7.2 °F /  -13.8 °C 2.1 °F /  -16.6 °C 1027.3 in /  34784.4 hPa NW 16.7 mph /  26.9 km/h 16.7 mph /  26.9 km/h 70 % 0.0 in /  0 mm 0.0 W/m2 CLR
23:55 7.2 °F /  -13.8 °C 2.1 °F /  -16.6 °C 1027.3 in /  34784.4 hPa West 18.5 mph /  29.8 km/h 18.5 mph /  29.8 km/h 70 % 0.0 in /  0 mm 0.0 W/m2 CLR
Lo Temps de Massalio
Compliments of Weather Underground - 1.25 mb